Time;durP1;ratioP1;P1;durP2;ratioP2;P2;SDS_P1;SDS_P2;PMS_P1;PMS_P2;Temp;Humidity;BMP_temperature;BMP_pressure;BME280_temperature;BME280_humidity;BME280_pressure;Samples;Min_cycle;Max_cycle;Signal;HPM_P1;HPM_P2
2021/05/02 00:01:10;;;;;;;6.47;2.15;;;19.60;76.00;;;;;;5100360;28;20642;-76
2021/05/02 00:03:36;;;;;;;6.07;1.80;;;19.60;76.10;;;;;;5094433;28;20224;-76
2021/05/02 00:06:07;;;;;;;2.83;1.50;;;19.60;76.40;;;;;;5098885;28;20678;-76
2021/05/02 00:08:33;;;;;;;2.55;1.33;;;19.60;75.90;;;;;;5101812;28;20215;-76
2021/05/02 00:10:59;;;;;;;2.50;1.38;;;19.60;76.70;;;;;;5094296;28;21002;-76
2021/05/02 00:13:24;;;;;;;3.75;1.60;;;19.50;76.50;;;;;;5097686;28;20875;-76
2021/05/02 00:15:51;;;;;;;5.32;1.40;;;19.50;76.80;;;;;;5094934;28;20566;-76
2021/05/02 00:18:17;;;;;;;5.53;1.27;;;19.50;76.40;;;;;;5099520;28;20213;-76
2021/05/02 00:20:45;;;;;;;3.05;1.33;;;19.40;76.40;;;;;;5080206;28;20183;-74
2021/05/02 00:23:11;;;;;;;1.95;0.82;;;19.40;76.40;;;;;;5101028;28;20256;-74
2021/05/02 00:25:37;;;;;;;3.63;1.17;;;19.40;76.60;;;;;;5103227;28;20269;-75
2021/05/02 00:28:07;;;;;;;2.22;1.20;;;19.30;76.60;;;;;;5094935;28;20316;-75
2021/05/02 00:30:33;;;;;;;1.35;1.02;;;19.30;76.60;;;;;;5093557;28;20714;-75
2021/05/02 00:33:00;;;;;;;3.95;1.48;;;19.30;77.00;;;;;;5097110;28;20288;-75
2021/05/02 00:35:26;;;;;;;4.18;1.08;;;19.30;76.80;;;;;;5095082;28;20186;-75
2021/05/02 00:37:53;;;;;;;2.22;1.10;;;19.20;76.70;;;;;;5096728;28;20200;-75
2021/05/02 00:40:29;;;;;;;2.85;1.70;;;19.20;76.60;;;;;;5098571;28;20191;-75
2021/05/02 00:43:00;;;;;;;3.25;1.13;;;19.20;76.40;;;;;;5097026;28;20189;-75
2021/05/02 00:45:30;;;;;;;5.97;1.60;;;19.20;77.10;;;;;;5099429;28;20186;-75
2021/05/02 00:48:42;;;;;;;5.85;1.30;;;19.20;76.80;;;;;;5099334;28;20602;-75
2021/05/02 00:51:13;;;;;;;3.15;1.35;;;19.10;78.70;;;;;;5010099;28;20197;-75
2021/05/02 00:53:45;;;;;;;5.90;1.35;;;19.10;77.20;;;;;;5009574;28;20204;-75
2021/05/02 00:56:32;;;;;;;2.95;1.25;;;19.10;77.30;;;;;;5008446;28;20197;-75
2021/05/02 00:59:16;;;;;;;4.30;1.98;;;19.00;78.50;;;;;;5009043;28;20200;-75
2021/05/02 01:01:50;;;;;;;4.78;1.50;;;19.00;78.60;;;;;;5009246;28;20240;-75
2021/05/02 01:04:24;;;;;;;3.55;1.33;;;18.90;79.40;;;;;;5007481;28;20191;-75
2021/05/02 01:06:51;;;;;;;2.20;1.65;;;18.80;78.40;;;;;;5009768;28;20201;-75
2021/05/02 01:09:17;;;;;;;2.28;2.08;;;18.80;78.40;;;;;;5010677;28;20447;-75
2021/05/02 01:11:47;;;;;;;6.65;2.75;;;18.80;80.90;;;;;;5011255;28;20188;-75
2021/05/02 01:14:16;;;;;;;4.88;2.35;;;18.70;79.40;;;;;;5012494;28;20741;-75
2021/05/02 01:16:42;;;;;;;4.25;2.67;;;18.60;79.90;;;;;;5009166;28;20184;-75
2021/05/02 01:19:10;;;;;;;12.02;2.42;;;18.60;79.40;;;;;;5011111;28;20284;-75
2021/05/02 01:21:38;;;;;;;4.95;2.20;;;18.60;79.90;;;;;;5010123;28;20230;-75
2021/05/02 01:24:07;;;;;;;3.95;2.42;;;18.50;79.50;;;;;;5013920;28;20193;-75
2021/05/02 01:26:35;;;;;;;4.32;1.77;;;18.50;79.50;;;;;;5012759;28;20185;-75
2021/05/02 01:29:01;;;;;;;7.50;2.30;;;18.50;79.50;;;;;;5083008;28;20638;-75
2021/05/02 01:31:27;;;;;;;4.00;2.20;;;18.50;80.50;;;;;;5092311;28;20196;-75
2021/05/02 01:33:54;;;;;;;3.33;1.63;;;18.40;80.30;;;;;;5079118;28;20748;-75
2021/05/02 01:36:20;;;;;;;4.90;1.70;;;18.40;79.90;;;;;;5098088;28;20216;-75
2021/05/02 01:38:49;;;;;;;5.38;2.00;;;18.50;79.80;;;;;;5091943;28;20190;-75
2021/05/02 01:41:14;;;;;;;7.85;2.22;;;18.50;79.80;;;;;;5090757;28;20182;-75
2021/05/02 01:43:40;;;;;;;2.88;1.60;;;18.50;79.80;;;;;;5095355;28;20254;-75
2021/05/02 01:46:06;;;;;;;2.97;1.90;;;18.50;79.60;;;;;;5097682;28;20183;-75
2021/05/02 01:48:33;;;;;;;5.55;2.13;;;18.50;80.60;;;;;;5096321;28;20202;-76
2021/05/02 01:51:09;;;;;;;5.95;1.77;;;18.50;80.50;;;;;;5098265;28;20673;-75
2021/05/02 01:53:38;;;;;;;2.95;1.77;;;18.50;80.00;;;;;;5075837;28;20769;-74
2021/05/02 01:56:04;;;;;;;4.07;1.88;;;18.50;79.80;;;;;;5098718;28;20690;-75
2021/05/02 01:58:32;;;;;;;3.00;1.70;;;18.50;80.80;;;;;;5094707;28;20177;-75
2021/05/02 02:01:13;;;;;;;1.67;1.58;;;18.50;80.30;;;;;;5092719;28;20181;-75
2021/05/02 02:03:40;;;;;;;2.20;1.23;;;18.50;80.40;;;;;;5097556;28;20192;-75
2021/05/02 02:06:07;;;;;;;4.00;1.42;;;18.40;80.80;;;;;;5097250;28;20177;-75
2021/05/02 02:08:33;;;;;;;7.63;1.98;;;18.40;80.60;;;;;;5096134;28;20877;-75
2021/05/02 02:10:59;;;;;;;6.90;1.38;;;18.40;80.60;;;;;;5093082;28;20201;-75
2021/05/02 02:13:25;;;;;;;3.33;1.20;;;18.40;81.10;;;;;;5100305;28;20197;-75
2021/05/02 02:15:51;;;;;;;1.50;1.40;;;18.40;80.80;;;;;;5093207;28;20183;-75
2021/05/02 02:18:17;;;;;;;4.55;1.77;;;18.40;81.00;;;;;;5101659;28;20192;-75
2021/05/02 02:20:46;;;;;;;1.38;1.27;;;18.40;81.30;;;;;;5096166;28;20187;-75
2021/05/02 02:23:19;;;;;;;1.80;1.33;;;18.30;80.90;;;;;;5077761;28;20182;-75
2021/05/02 02:25:46;;;;;;;3.70;1.35;;;18.30;80.80;;;;;;5096941;28;20204;-75
2021/05/02 02:28:17;;;;;;;4.10;1.63;;;18.30;81.50;;;;;;5088760;28;20210;-75
2021/05/02 02:30:47;;;;;;;5.93;1.52;;;18.20;81.10;;;;;;5096480;28;20185;-75
2021/05/02 02:33:14;;;;;;;1.85;1.30;;;18.20;81.40;;;;;;5099053;28;20209;-75
2021/05/02 02:35:50;;;;;;;2.78;1.48;;;18.10;81.60;;;;;;5095860;28;20230;-75
2021/05/02 02:38:25;;;;;;;4.78;1.45;;;18.10;81.50;;;;;;5096548;28;20212;-75
2021/05/02 02:40:53;;;;;;;3.05;1.25;;;18.10;81.60;;;;;;5097145;28;20731;-75
2021/05/02 02:43:29;;;;;;;8.52;1.60;;;18.10;81.50;;;;;;5094817;28;20292;-76
2021/05/02 02:46:03;;;;;;;5.32;1.65;;;18.00;81.50;;;;;;5096238;28;20893;-75
2021/05/02 02:48:30;;;;;;;3.13;1.48;;;18.00;82.50;;;;;;5094203;28;20901;-75
2021/05/02 02:50:58;;;;;;;2.70;1.38;;;17.90;82.00;;;;;;5095361;28;20186;-75
2021/05/02 02:53:27;;;;;;;2.15;1.50;;;17.90;81.90;;;;;;5093595;28;20173;-75
2021/05/02 02:55:58;;;;;;;9.02;1.30;;;17.80;82.10;;;;;;5096630;28;20181;-75
2021/05/02 02:58:27;;;;;;;3.67;1.23;;;17.80;82.80;;;;;;5091999;28;20262;-75
2021/05/02 03:00:53;;;;;;;0.93;0.93;;;17.70;82.60;;;;;;5096284;28;20181;-75
2021/05/02 03:03:21;;;;;;;1.42;1.17;;;17.70;82.90;;;;;;5096124;28;20277;-75
2021/05/02 03:05:49;;;;;;;7.97;1.52;;;17.60;82.90;;;;;;5095434;28;20177;-75
2021/05/02 03:08:21;;;;;;;1.33;1.00;;;17.60;82.50;;;;;;5098476;28;20756;-75
2021/05/02 03:10:49;;;;;;;2.97;1.15;;;17.50;82.90;;;;;;5095363;28;20197;-75
2021/05/02 03:13:15;;;;;;;2.85;1.13;;;17.50;83.20;;;;;;5094457;28;20982;-75
2021/05/02 03:16:00;;;;;;;1.98;0.93;;;17.50;83.10;;;;;;5098044;28;21513;-74
2021/05/02 03:18:29;;;;;;;1.60;1.40;;;17.40;83.20;;;;;;5095167;28;20185;-75
2021/05/02 03:21:06;;;;;;;4.63;0.93;;;17.40;84.00;;;;;;5091281;28;20274;-75
2021/05/02 03:23:39;;;;;;;2.25;1.00;;;17.40;83.30;;;;;;5097060;28;20233;-75
2021/05/02 03:26:07;;;;;;;5.97;1.27;;;17.30;83.70;;;;;;5097632;28;20205;-75
2021/05/02 03:28:41;;;;;;;2.33;1.30;;;17.30;83.30;;;;;;5097632;28;20201;-75
2021/05/02 03:31:11;;;;;;;4.07;1.35;;;17.20;85.10;;;;;;5093502;28;20327;-75
2021/05/02 03:33:41;;;;;;;1.95;1.02;;;17.20;84.50;;;;;;5098662;28;20174;-75
2021/05/02 03:36:10;;;;;;;2.70;1.55;;;17.10;84.00;;;;;;5098271;28;20183;-75
2021/05/02 03:38:49;;;;;;;8.98;2.03;;;17.10;85.80;;;;;;5093367;28;20193;-75
2021/05/02 03:41:17;;;;;;;5.18;1.50;;;17.00;85.50;;;;;;5091824;28;20278;-75
2021/05/02 03:43:43;;;;;;;5.50;1.35;;;17.00;86.10;;;;;;5094533;28;20174;-75
2021/05/02 03:46:23;;;;;;;2.60;1.33;;;16.90;85.60;;;;;;5093294;28;20189;-75
2021/05/02 03:48:58;;;;;;;4.43;1.70;;;17.00;85.10;;;;;;5090606;28;20209;-75
2021/05/02 03:51:25;;;;;;;4.82;1.70;;;17.00;86.00;;;;;;5077323;28;20201;-75
2021/05/02 03:53:51;;;;;;;3.28;2.08;;;17.10;84.60;;;;;;5089910;28;20202;-75
2021/05/02 03:56:36;;;;;;;5.38;1.40;;;17.20;85.40;;;;;;5094750;28;20175;-75
2021/05/02 03:59:23;;;;;;;3.60;1.65;;;17.30;83.70;;;;;;5095723;28;20181;-75
2021/05/02 04:01:49;;;;;;;2.78;1.10;;;17.30;85.20;;;;;;5095527;28;20187;-75
2021/05/02 04:04:17;;;;;;;2.65;1.50;;;17.30;83.60;;;;;;5094815;28;20324;-76
2021/05/02 04:06:43;;;;;;;3.00;1.17;;;17.50;83.20;;;;;;5087379;28;20178;-75
2021/05/02 04:09:10;;;;;;;1.70;0.93;;;17.50;83.10;;;;;;5088966;28;20355;-75
2021/05/02 04:11:36;;;;;;;3.63;1.17;;;17.60;83.00;;;;;;5098770;28;20294;-76
2021/05/02 04:14:07;;;;;;;2.55;1.02;;;17.70;82.80;;;;;;5092724;28;20199;-75
2021/05/02 04:16:33;;;;;;;1.85;0.90;;;17.70;82.40;;;;;;5096841;28;22118;-75
2021/05/02 04:19:03;;;;;;;5.10;1.45;;;17.80;83.70;;;;;;5100668;28;20186;-75
2021/05/02 04:21:29;;;;;;;7.57;1.95;;;17.90;83.00;;;;;;5101655;28;20193;-75
2021/05/02 04:23:55;;;;;;;6.35;1.42;;;17.90;82.80;;;;;;5098658;28;20184;-75
2021/05/02 04:26:21;;;;;;;6.97;1.50;;;17.90;82.60;;;;;;5101979;28;20685;-76
2021/05/02 04:28:47;;;;;;;1.65;1.25;;;18.00;82.50;;;;;;5097132;28;20220;-76
2021/05/02 04:31:12;;;;;;;4.00;1.50;;;18.00;82.80;;;;;;5096354;28;20190;-76
2021/05/02 04:33:39;;;;;;;4.85;1.70;;;18.00;82.70;;;;;;5097135;28;20187;-76
2021/05/02 04:36:05;;;;;;;6.15;1.38;;;18.00;82.70;;;;;;5100143;28;20570;-76
2021/05/02 04:38:31;;;;;;;1.48;1.38;;;18.00;82.30;;;;;;5097002;28;20186;-76
2021/05/02 04:40:57;;;;;;;4.28;1.30;;;18.10;83.40;;;;;;5096388;28;20183;-76
2021/05/02 04:43:22;;;;;;;5.35;1.15;;;18.10;82.20;;;;;;5099043;28;20189;-76
2021/05/02 04:45:48;;;;;;;3.60;1.40;;;18.10;81.80;;;;;;5100002;28;20186;-76
2021/05/02 04:48:14;;;;;;;3.55;1.35;;;18.20;82.70;;;;;;5089079;28;20217;-76
2021/05/02 04:50:40;;;;;;;8.05;1.00;;;18.20;82.90;;;;;;5095671;28;20189;-76
2021/05/02 04:53:06;;;;;;;5.90;1.70;;;18.30;81.90;;;;;;5094269;28;20190;-76
2021/05/02 04:55:32;;;;;;;3.47;1.15;;;18.30;82.40;;;;;;5095061;28;20244;-76
2021/05/02 04:57:58;;;;;;;9.60;1.75;;;18.20;82.90;;;;;;5100764;28;20913;-76
2021/05/02 05:00:24;;;;;;;7.47;1.85;;;18.30;81.40;;;;;;5099549;28;20170;-76
2021/05/02 05:02:51;;;;;;;9.05;1.70;;;18.40;81.50;;;;;;5096371;28;20731;-76
2021/05/02 05:05:17;;;;;;;1.67;1.02;;;18.50;81.60;;;;;;5093096;28;20181;-75
2021/05/02 05:07:43;;;;;;;6.85;1.27;;;18.60;80.40;;;;;;5093468;28;20283;-75
2021/05/02 05:10:09;;;;;;;3.53;1.35;;;18.70;80.40;;;;;;5093696;28;20906;-75
2021/05/02 05:12:39;;;;;;;3.47;1.77;;;18.80;80.60;;;;;;5095309;28;20189;-75
2021/05/02 05:15:06;;;;;;;2.72;1.17;;;18.90;80.30;;;;;;5095823;28;20178;-74
2021/05/02 05:17:32;;;;;;;5.80;1.42;;;19.00;80.10;;;;;;5097689;28;20183;-75
2021/05/02 05:19:58;;;;;;;2.90;1.60;;;19.20;79.80;;;;;;5094477;28;20182;-74
2021/05/02 05:22:24;;;;;;;1.58;1.48;;;19.30;79.80;;;;;;5093578;28;20174;-74
2021/05/02 05:24:49;;;;;;;10.15;1.25;;;19.40;79.50;;;;;;5095565;28;20174;-74
2021/05/02 05:27:15;;;;;;;2.33;1.38;;;19.50;78.90;;;;;;5098437;28;20186;-76
2021/05/02 05:29:41;;;;;;;8.15;1.63;;;19.60;78.70;;;;;;5089280;28;20289;-75
2021/05/02 05:32:06;;;;;;;8.50;1.65;;;19.70;78.40;;;;;;5096602;28;20200;-74
2021/05/02 05:34:34;;;;;;;1.60;1.35;;;19.80;78.20;;;;;;5093314;28;20890;-74
2021/05/02 05:37:00;;;;;;;11.48;1.70;;;19.80;77.30;;;;;;5095197;28;20182;-76
2021/05/02 05:39:26;;;;;;;7.15;1.73;;;19.80;77.50;;;;;;5096966;28;20187;-77
2021/05/02 05:41:52;;;;;;;1.80;1.38;;;19.90;77.40;;;;;;5094207;28;20216;-76
2021/05/02 05:44:18;;;;;;;3.63;1.48;;;19.90;77.30;;;;;;5093266;28;20686;-76
2021/05/02 05:46:44;;;;;;;2.05;1.73;;;20.00;77.50;;;;;;5091584;28;20191;-76
2021/05/02 05:49:10;;;;;;;6.60;1.30;;;20.10;76.80;;;;;;5088958;28;20206;-76
2021/05/02 05:51:35;;;;;;;1.98;1.85;;;20.20;77.10;;;;;;5093313;28;20574;-75
2021/05/02 05:54:02;;;;;;;4.63;1.23;;;20.30;76.70;;;;;;5092921;28;20969;-76
2021/05/02 05:56:28;;;;;;;3.70;1.75;;;20.50;76.80;;;;;;5096927;28;20186;-73
2021/05/02 05:58:53;;;;;;;9.10;1.77;;;20.70;76.00;;;;;;5095384;28;20189;-73
2021/05/02 06:01:19;;;;;;;5.85;1.67;;;20.90;76.00;;;;;;5098953;28;20398;-72
2021/05/02 06:03:45;;;;;;;6.72;1.95;;;21.10;75.00;;;;;;5096372;28;20174;-72
2021/05/02 06:06:11;;;;;;;5.00;1.85;;;21.30;75.10;;;;;;5093909;28;20179;-74
2021/05/02 06:08:37;;;;;;;9.02;1.80;;;21.40;74.70;;;;;;5098396;28;20209;-75
2021/05/02 06:11:03;;;;;;;2.88;1.70;;;21.60;74.00;;;;;;5097915;28;20182;-76
2021/05/02 06:13:28;;;;;;;5.13;1.77;;;21.70;73.80;;;;;;5086768;28;20198;-77
2021/05/02 06:15:54;;;;;;;2.92;1.67;;;21.90;73.60;;;;;;5083384;28;20178;-76
2021/05/02 06:18:20;;;;;;;6.47;2.10;;;22.00;73.50;;;;;;5085292;28;20190;-77
2021/05/02 06:20:45;;;;;;;6.55;1.80;;;22.10;72.90;;;;;;5089578;28;20183;-76
2021/05/02 06:23:11;;;;;;;2.45;1.90;;;22.10;72.30;;;;;;5085496;28;20190;-76
2021/05/02 06:25:37;;;;;;;5.15;1.48;;;22.20;72.30;;;;;;5091507;28;20181;-78
2021/05/02 06:28:03;;;;;;;5.35;2.13;;;22.30;71.70;;;;;;5091153;28;20674;-77
2021/05/02 06:30:29;;;;;;;4.80;1.70;;;22.40;71.20;;;;;;5087182;28;21009;-76
2021/05/02 06:32:55;;;;;;;4.07;1.80;;;22.40;70.90;;;;;;5089407;28;20272;-77
2021/05/02 06:35:22;;;;;;;6.65;1.88;;;22.50;71.20;;;;;;5087200;28;20213;-77
2021/05/02 06:37:48;;;;;;;2.17;1.80;;;22.70;71.10;;;;;;5088290;28;20186;-76
2021/05/02 06:40:14;;;;;;;4.55;1.42;;;22.80;70.50;;;;;;5087082;28;20181;-77
2021/05/02 06:42:40;;;;;;;6.70;1.73;;;22.90;70.60;;;;;;5091242;28;20643;-76
2021/05/02 06:45:06;;;;;;;3.13;1.90;;;23.00;70.00;;;;;;5088668;28;20567;-77
2021/05/02 06:47:32;;;;;;;5.60;1.75;;;23.10;69.80;;;;;;5092061;28;20279;-76
2021/05/02 06:49:57;;;;;;;4.70;2.15;;;23.20;69.60;;;;;;5087731;28;20186;-77
2021/05/02 06:52:23;;;;;;;5.00;1.40;;;23.30;69.60;;;;;;5091998;28;20186;-77
2021/05/02 06:54:49;;;;;;;3.08;1.50;;;23.40;68.80;;;;;;5092160;28;20182;-77
2021/05/02 06:57:14;;;;;;;6.00;1.98;;;23.60;69.00;;;;;;5087886;28;20182;-76
2021/05/02 06:59:43;;;;;;;1.38;1.27;;;23.70;68.50;;;;;;5087291;28;20186;-76
2021/05/02 07:02:09;;;;;;;3.40;1.67;;;23.80;68.40;;;;;;5085601;28;20178;-76
2021/05/02 07:04:35;;;;;;;2.30;1.58;;;23.80;68.40;;;;;;5083485;28;20182;-77
2021/05/02 07:07:02;;;;;;;4.50;2.00;;;23.90;68.90;;;;;;5096579;28;20177;-78
2021/05/02 07:09:28;;;;;;;2.03;1.20;;;23.90;68.60;;;;;;5094809;28;20710;-78
2021/05/02 07:11:53;;;;;;;3.35;1.70;;;24.00;69.00;;;;;;5095809;28;20189;-76
2021/05/02 07:14:19;;;;;;;8.02;1.85;;;24.10;68.50;;;;;;5092752;28;20647;-77
2021/05/02 07:16:45;;;;;;;3.53;1.25;;;24.20;68.00;;;;;;5095841;28;20365;-75
2021/05/02 07:19:12;;;;;;;1.40;1.30;;;24.30;68.00;;;;;;5092753;28;20220;-74
2021/05/02 07:21:38;;;;;;;3.22;1.67;;;24.40;67.60;;;;;;5094383;28;20253;-75
2021/05/02 07:24:04;;;;;;;8.80;2.55;;;24.50;68.20;;;;;;5093302;28;20182;-77
2021/05/02 07:26:30;;;;;;;3.00;1.95;;;24.60;68.10;;;;;;5096913;28;20177;-73
2021/05/02 07:28:56;;;;;;;8.75;2.72;;;24.70;67.20;;;;;;5095817;28;20222;-75
2021/05/02 07:31:21;;;;;;;12.23;3.83;;;24.80;67.20;;;;;;5099649;28;20178;-75
2021/05/02 07:33:47;;;;;;;9.30;3.58;;;24.90;67.40;;;;;;5091261;28;20182;-76
2021/05/02 07:36:14;;;;;;;5.03;3.05;;;24.90;67.30;;;;;;5089086;28;20678;-73
2021/05/02 07:38:42;;;;;;;3.85;2.72;;;25.00;67.20;;;;;;5089702;28;20200;-74
2021/05/02 07:41:08;;;;;;;4.18;2.88;;;25.00;67.20;;;;;;5096135;28;20177;-75
2021/05/02 07:43:34;;;;;;;6.15;2.75;;;25.00;66.70;;;;;;5092303;28;20188;-75
2021/05/02 07:46:01;;;;;;;8.00;2.78;;;25.00;66.90;;;;;;5087373;28;20620;-74
2021/05/02 07:48:28;;;;;;;5.03;2.33;;;25.00;66.90;;;;;;5088953;28;20551;-76
2021/05/02 07:50:53;;;;;;;4.45;2.20;;;25.00;66.50;;;;;;5088593;28;20178;-76
2021/05/02 07:53:20;;;;;;;6.47;2.03;;;25.00;66.30;;;;;;5093895;28;20196;-75
2021/05/02 07:55:46;;;;;;;10.80;2.20;;;25.10;66.80;;;;;;5092871;28;20185;-75
2021/05/02 07:58:12;;;;;;;3.72;2.10;;;25.20;66.50;;;;;;5089671;28;20201;-74
2021/05/02 08:00:38;;;;;;;5.93;2.25;;;25.20;66.00;;;;;;5089936;28;21624;-74
2021/05/02 08:03:04;;;;;;;4.80;1.88;;;25.20;66.50;;;;;;5087518;28;20178;-73
2021/05/02 08:05:31;;;;;;;12.77;2.00;;;25.30;66.70;;;;;;5094987;28;20189;-75
2021/05/02 08:07:57;;;;;;;7.75;2.13;;;25.40;66.70;;;;;;5090525;28;20212;-74
2021/05/02 08:10:23;;;;;;;1.55;1.45;;;25.40;66.80;;;;;;5094525;28;20186;-74
2021/05/02 08:12:55;;;;;;;3.33;1.90;;;25.50;66.20;;;;;;5093782;28;20186;-75
2021/05/02 08:15:22;;;;;;;12.73;2.00;;;25.60;66.20;;;;;;5092368;28;20178;-73
2021/05/02 08:17:48;;;;;;;4.00;2.08;;;25.70;66.40;;;;;;5082227;28;20186;-74
2021/05/02 08:20:14;;;;;;;4.38;1.88;;;25.80;66.50;;;;;;5097075;28;20192;-74
2021/05/02 08:22:41;;;;;;;7.30;1.90;;;25.90;66.30;;;;;;5097682;28;20569;-73
2021/05/02 08:25:08;;;;;;;2.22;1.70;;;26.00;65.60;;;;;;5100025;28;20689;-73
2021/05/02 08:27:34;;;;;;;8.85;2.30;;;26.20;65.70;;;;;;5095350;28;20202;-74
2021/05/02 08:30:00;;;;;;;4.72;2.13;;;26.30;65.10;;;;;;5100451;28;20197;-75
2021/05/02 08:32:26;;;;;;;4.28;1.80;;;26.50;65.30;;;;;;5105728;28;20174;-75
2021/05/02 08:34:52;;;;;;;5.68;2.08;;;26.60;64.80;;;;;;5096393;28;20177;-75
2021/05/02 08:37:18;;;;;;;5.53;1.92;;;26.60;64.30;;;;;;5099179;28;20184;-75
2021/05/02 08:39:44;;;;;;;6.93;1.33;;;26.50;61.60;;;;;;5105190;28;20182;-76
2021/05/02 08:42:09;;;;;;;9.68;1.70;;;26.50;60.90;;;;;;5106790;28;20753;-75
2021/05/02 08:44:36;;;;;;;2.92;1.30;;;26.60;58.30;;;;;;5103043;28;20181;-75
2021/05/02 08:47:04;;;;;;;4.65;1.63;;;26.60;59.20;;;;;;5103754;28;20178;-74
2021/05/02 08:49:31;;;;;;;9.02;1.60;;;26.70;58.40;;;;;;5103613;28;20220;-74
2021/05/02 08:51:56;;;;;;;5.90;1.50;;;26.70;57.60;;;;;;5100633;28;20196;-75
2021/05/02 08:54:22;;;;;;;11.93;1.88;;;26.70;58.30;;;;;;5104291;28;20182;-73
2021/05/02 08:56:53;;;;;;;8.65;1.45;;;26.70;58.20;;;;;;5101489;28;20273;-74
2021/05/02 08:59:18;;;;;;;4.35;0.80;;;26.70;57.40;;;;;;5102300;28;20654;-75
2021/05/02 09:01:45;;;;;;;6.18;1.50;;;26.60;57.30;;;;;;5108434;28;20180;-76
2021/05/02 09:04:11;;;;;;;4.43;1.50;;;26.60;58.30;;;;;;5106354;28;20185;-75
2021/05/02 09:06:38;;;;;;;4.07;1.50;;;26.60;56.80;;;;;;5110280;28;20260;-76
2021/05/02 09:09:08;;;;;;;4.38;1.30;;;26.60;57.10;;;;;;5110521;28;20209;-75
2021/05/02 09:11:45;;;;;;;10.38;1.30;;;26.50;57.10;;;;;;5108520;28;20666;-76
2021/05/02 09:14:17;;;;;;;6.68;1.33;;;26.50;56.60;;;;;;5106966;28;20248;-75
2021/05/02 09:16:54;;;;;;;9.00;1.60;;;26.50;57.40;;;;;;5108209;28;20173;-75
2021/05/02 09:19:33;;;;;;;8.18;1.13;;;26.60;57.60;;;;;;5106538;28;20177;-75
2021/05/02 09:22:12;;;;;;;4.40;1.02;;;26.70;57.60;;;;;;5105697;28;20560;-75
2021/05/02 09:24:38;;;;;;;6.97;1.08;;;26.90;57.00;;;;;;5107664;28;20222;-73
2021/05/02 09:27:15;;;;;;;4.40;1.13;;;27.00;56.60;;;;;;5103840;28;20243;-75
2021/05/02 09:29:43;;;;;;;8.20;1.48;;;27.30;56.40;;;;;;5107388;28;20895;-75
2021/05/02 09:32:11;;;;;;;10.82;1.33;;;27.40;56.20;;;;;;5107821;28;20174;-75
2021/05/02 09:34:46;;;;;;;6.25;1.50;;;27.60;55.50;;;;;;5108678;28;20186;-74
2021/05/02 09:37:12;;;;;;;2.60;1.00;;;27.80;55.00;;;;;;5100058;28;20510;-75
2021/05/02 09:39:42;;;;;;;6.43;1.40;;;28.00;55.30;;;;;;5106778;28;20378;-75
2021/05/02 09:42:15;;;;;;;5.18;1.38;;;28.30;54.70;;;;;;5104863;28;20195;-75
2021/05/02 09:44:55;;;;;;;7.40;1.30;;;28.50;53.50;;;;;;5106527;28;20174;-74
2021/05/02 09:47:33;;;;;;;7.28;1.70;;;28.70;52.20;;;;;;5103741;28;20570;-75
2021/05/02 09:50:06;;;;;;;8.82;1.42;;;29.10;52.00;;;;;;5102633;28;20218;-75
2021/05/02 09:52:48;;;;;;;5.72;1.38;;;29.60;51.60;;;;;;5110606;28;20234;-75
2021/05/02 09:55:28;;;;;;;3.38;1.40;;;30.10;50.60;;;;;;5105077;28;20174;-75
2021/05/02 09:57:54;;;;;;;2.53;0.70;;;30.60;50.50;;;;;;5102546;28;20194;-75
2021/05/02 10:00:35;;;;;;;3.00;1.45;;;31.10;49.30;;;;;;5109198;28;20187;-75
2021/05/02 10:03:04;;;;;;;7.57;1.83;;;31.40;49.40;;;;;;5108069;28;20188;-76
2021/05/02 10:05:30;;;;;;;3.13;1.52;;;31.70;48.80;;;;;;5106313;28;20197;-75
2021/05/02 10:07:57;;;;;;;3.65;0.77;;;32.00;48.40;;;;;;5103955;28;20242;-75
2021/05/02 10:10:23;;;;;;;3.70;1.00;;;32.10;49.40;;;;;;5105250;28;20268;-75
2021/05/02 10:12:51;;;;;;;13.20;1.50;;;32.20;47.70;;;;;;5100203;28;20292;-75
2021/05/02 10:15:18;;;;;;;11.00;1.50;;;32.30;48.20;;;;;;5104272;28;20253;-75
2021/05/02 10:17:46;;;;;;;9.85;1.35;;;32.50;48.10;;;;;;5103999;28;20190;-75
2021/05/02 10:20:13;;;;;;;6.32;1.50;;;32.70;47.60;;;;;;5102573;28;20182;-74
2021/05/02 10:22:40;;;;;;;7.05;1.10;;;33.10;47.60;;;;;;5102448;28;20658;-75
2021/05/02 10:25:07;;;;;;;5.30;1.35;;;33.40;47.20;;;;;;5104728;28;20184;-76
2021/05/02 10:27:43;;;;;;;6.05;1.52;;;33.70;47.70;;;;;;5102008;28;20169;-75
2021/05/02 10:30:10;;;;;;;7.43;1.35;;;34.00;47.70;;;;;;5101407;28;20216;-75
2021/05/02 10:32:37;;;;;;;7.30;1.42;;;34.10;46.00;;;;;;5107623;28;20192;-76
2021/05/02 10:35:08;;;;;;;7.68;1.35;;;33.70;47.80;;;;;;5104482;28;20174;-75
2021/05/02 10:37:36;;;;;;;5.63;1.60;;;33.30;48.50;;;;;;5099487;28;20190;-74
2021/05/02 10:40:06;;;;;;;7.03;1.65;;;32.80;47.60;;;;;;5102746;28;20804;-73
2021/05/02 10:42:36;;;;;;;4.30;1.42;;;32.70;47.90;;;;;;5085180;28;20681;-74
2021/05/02 10:45:29;;;;;;;1.63;1.15;;;32.50;47.80;;;;;;5099462;28;20213;-74
2021/05/02 10:47:59;;;;;;;5.22;1.20;;;32.50;47.50;;;;;;5106516;28;20228;-75
2021/05/02 10:50:26;;;;;;;3.75;1.63;;;32.90;49.10;;;;;;5102782;28;20185;-73
2021/05/02 10:53:11;;;;;;;7.20;1.27;;;33.40;47.30;;;;;;5105975;28;20204;-75
2021/05/02 10:56:04;;;;;;;3.53;0.85;;;33.70;46.10;;;;;;5103904;28;20738;-75
2021/05/02 10:58:33;;;;;;;1.73;1.08;;;34.10;46.00;;;;;;5104924;28;20245;-75
2021/05/02 11:01:10;;;;;;;2.78;1.17;;;34.60;45.60;;;;;;5107996;28;20212;-75
2021/05/02 11:03:38;;;;;;;6.22;1.00;;;34.80;44.20;;;;;;5107553;28;20207;-75
2021/05/02 11:06:06;;;;;;;3.47;1.00;;;34.90;44.30;;;;;;5105945;28;20181;-75
2021/05/02 11:08:56;;;;;;;4.00;1.00;;;34.80;44.80;;;;;;5108082;28;20289;-75
2021/05/02 11:16:46;;;;;;;4.07;0.85;;;34.90;43.40;;;;;;5104539;28;20188;-75
2021/05/02 11:19:22;;;;;;;5.28;1.10;;;35.20;43.60;;;;;;5101635;28;20184;-75
2021/05/02 11:22:01;;;;;;;2.78;0.80;;;35.30;42.20;;;;;;5106377;28;20605;-75
2021/05/02 11:24:51;;;;;;;5.60;0.85;;;35.10;43.30;;;;;;5105025;28;20169;-75
2021/05/02 11:27:24;;;;;;;3.78;0.95;;;35.10;42.20;;;;;;5104165;28;20190;-75
2021/05/02 11:32:31;;;;;;;2.47;0.90;;;35.70;44.00;;;;;;5105771;28;20271;-75
2021/05/02 11:35:01;;;;;;;2.55;0.93;;;36.10;42.40;;;;;;5105809;28;20180;-75
2021/05/02 11:37:44;;;;;;;4.13;0.95;;;36.30;43.10;;;;;;5108949;28;20291;-75
2021/05/02 11:40:25;;;;;;;2.40;0.82;;;36.30;41.40;;;;;;5112177;28;20178;-75
2021/05/02 11:43:27;;;;;;;5.13;1.13;;;36.50;41.20;;;;;;5110673;28;20193;-75
2021/05/02 11:45:55;;;;;;;5.78;1.75;;;36.60;39.90;;;;;;5010609;28;20213;-75
2021/05/02 11:48:21;;;;;;;7.03;1.27;;;36.60;40.80;;;;;;4991606;28;20219;-75
2021/05/02 11:50:48;;;;;;;5.95;0.88;;;36.60;40.30;;;;;;5007713;28;20681;-76
2021/05/02 11:53:33;;;;;;;9.95;1.10;;;36.60;40.40;;;;;;5009642;28;20305;-76
2021/05/02 11:55:59;;;;;;;7.07;0.88;;;36.40;39.40;;;;;;5007665;28;20196;-74
2021/05/02 11:58:24;;;;;;;5.63;0.77;;;36.30;40.80;;;;;;5009009;28;20199;-76
2021/05/02 12:00:52;;;;;;;4.80;1.15;;;36.30;40.10;;;;;;5015949;28;20268;-75
2021/05/02 12:03:38;;;;;;;8.88;1.30;;;36.30;40.50;;;;;;5017028;28;20192;-75
2021/05/02 12:06:06;;;;;;;6.72;1.17;;;36.50;41.10;;;;;;5014099;28;20184;-75
2021/05/02 12:08:32;;;;;;;9.32;1.02;;;36.70;39.50;;;;;;5011467;28;20279;-76
2021/05/02 12:11:16;;;;;;;4.82;1.40;;;36.40;39.90;;;;;;5009075;28;20246;-75
2021/05/02 12:13:45;;;;;;;3.10;1.13;;;36.50;39.40;;;;;;5010140;28;20259;-75
2021/05/02 12:16:15;;;;;;;9.30;0.88;;;36.80;40.00;;;;;;5008016;28;20275;-74
2021/05/02 12:18:49;;;;;;;6.00;1.15;;;36.90;39.00;;;;;;5009793;28;20184;-74
2021/05/02 12:21:18;;;;;;;2.90;0.93;;;37.10;39.00;;;;;;5007216;28;20305;-75
2021/05/02 12:23:44;;;;;;;4.40;1.00;;;37.00;39.10;;;;;;5090016;28;20215;-75
2021/05/02 12:26:12;;;;;;;6.25;1.13;;;37.10;40.50;;;;;;5107374;28;20181;-74
2021/05/02 12:28:41;;;;;;;3.15;0.98;;;37.40;39.90;;;;;;5105024;28;20608;-75
2021/05/02 12:31:09;;;;;;;8.05;1.10;;;37.30;39.40;;;;;;5088480;28;20189;-75
2021/05/02 12:33:36;;;;;;;4.00;1.00;;;37.20;39.00;;;;;;5106018;28;20188;-75
2021/05/02 12:36:04;;;;;;;11.32;1.35;;;36.90;40.20;;;;;;5101197;28;20271;-74
2021/05/02 12:38:30;;;;;;;6.35;1.13;;;36.90;40.90;;;;;;5103673;28;20185;-75
2021/05/02 12:40:56;;;;;;;7.38;1.02;;;37.00;39.60;;;;;;5111556;28;20177;-75
2021/05/02 12:43:26;;;;;;;4.68;0.90;;;37.00;40.40;;;;;;5109382;28;20191;-74
2021/05/02 12:45:52;;;;;;;2.60;1.00;;;36.80;40.50;;;;;;5114700;28;20177;-75
2021/05/02 12:48:36;;;;;;;5.13;1.00;;;36.20;40.70;;;;;;5109679;28;20215;-76
2021/05/02 12:51:02;;;;;;;2.65;0.93;;;35.80;40.30;;;;;;5110110;28;20177;-76
2021/05/02 12:53:40;;;;;;;4.30;0.88;;;35.40;41.80;;;;;;5111458;28;20267;-75
2021/05/02 12:56:07;;;;;;;3.97;1.02;;;35.20;40.90;;;;;;5106235;28;20271;-75
2021/05/02 12:58:37;;;;;;;8.13;0.90;;;35.20;42.90;;;;;;5105127;28;20181;-75
2021/05/02 13:01:12;;;;;;;11.18;1.30;;;35.40;43.00;;;;;;5111510;28;20202;-76
2021/05/02 13:03:39;;;;;;;5.68;1.67;;;35.90;40.90;;;;;;5092286;28;20181;-75